sensor_id;sensor_type;location;lat;lon;timestamp;pressure;altitude;pressure_sealevel;temperature;humidity
33163;BME280;29282;45.656;11.302;2023-03-14T00:01:58;97818.13;;;18.45;46.90
33163;BME280;29282;45.656;11.302;2023-03-14T00:04:24;97812.97;;;18.44;46.80
33163;BME280;29282;45.656;11.302;2023-03-14T00:06:49;97818.81;;;18.42;46.98
33163;BME280;29282;45.656;11.302;2023-03-14T00:09:18;97810.59;;;18.42;47.15
33163;BME280;29282;45.656;11.302;2023-03-14T00:11:43;97807.84;;;18.42;47.06
33163;BME280;29282;45.656;11.302;2023-03-14T00:14:09;97801.56;;;18.42;46.95
33163;BME280;29282;45.656;11.302;2023-03-14T00:16:34;97807.38;;;18.40;46.93
33163;BME280;29282;45.656;11.302;2023-03-14T00:19:00;97810.94;;;18.41;46.98
33163;BME280;29282;45.656;11.302;2023-03-14T00:21:26;97798.38;;;18.40;47.11
33163;BME280;29282;45.656;11.302;2023-03-14T00:23:52;97793.25;;;18.38;47.16
33163;BME280;29282;45.656;11.302;2023-03-14T00:26:19;97782.28;;;18.38;47.09
33163;BME280;29282;45.656;11.302;2023-03-14T00:28:46;97777.91;;;18.37;47.20
33163;BME280;29282;45.656;11.302;2023-03-14T00:31:14;97793.56;;;18.37;47.01
33163;BME280;29282;45.656;11.302;2023-03-14T00:33:41;97783.41;;;18.37;46.98
33163;BME280;29282;45.656;11.302;2023-03-14T00:36:09;97770.84;;;18.36;47.11
33163;BME280;29282;45.656;11.302;2023-03-14T00:38:36;97788.09;;;18.37;46.90
33163;BME280;29282;45.656;11.302;2023-03-14T00:41:06;97786.50;;;18.36;47.13
33163;BME280;29282;45.656;11.302;2023-03-14T00:43:32;97755.53;;;18.35;46.99
33163;BME280;29282;45.656;11.302;2023-03-14T00:45:57;97755.06;;;18.33;47.28
33163;BME280;29282;45.656;11.302;2023-03-14T00:48:23;97751.19;;;18.34;47.06
33163;BME280;29282;45.656;11.302;2023-03-14T00:50:48;97751.19;;;18.34;47.02
33163;BME280;29282;45.656;11.302;2023-03-14T00:53:14;97751.53;;;18.33;47.02
33163;BME280;29282;45.656;11.302;2023-03-14T00:55:41;97742.53;;;18.32;47.16
33163;BME280;29282;45.656;11.302;2023-03-14T00:58:15;97719.78;;;18.31;47.08
33163;BME280;29282;45.656;11.302;2023-03-14T01:00:41;97717.03;;;18.31;47.19
33163;BME280;29282;45.656;11.302;2023-03-14T01:03:08;97729.13;;;18.30;47.10
33163;BME280;29282;45.656;11.302;2023-03-14T01:05:34;97702.88;;;18.29;47.19
33163;BME280;29282;45.656;11.302;2023-03-14T01:07:59;97706.41;;;18.30;46.93
33163;BME280;29282;45.656;11.302;2023-03-14T01:10:25;97695.00;;;18.28;47.10
33163;BME280;29282;45.656;11.302;2023-03-14T01:12:50;97686.78;;;18.28;46.76
33163;BME280;29282;45.656;11.302;2023-03-14T01:15:16;97672.59;;;18.26;47.05
33163;BME280;29282;45.656;11.302;2023-03-14T01:17:41;97680.47;;;18.27;47.04
33163;BME280;29282;45.656;11.302;2023-03-14T01:20:09;97676.94;;;18.27;47.17
33163;BME280;29282;45.656;11.302;2023-03-14T01:22:36;97675.34;;;18.26;47.13
33163;BME280;29282;45.656;11.302;2023-03-14T01:25:04;97667.13;;;18.26;46.98
33163;BME280;29282;45.656;11.302;2023-03-14T01:27:29;97652.63;;;18.25;47.05
33163;BME280;29282;45.656;11.302;2023-03-14T01:29:55;97656.16;;;18.26;47.19
33163;BME280;29282;45.656;11.302;2023-03-14T01:32:20;97658.44;;;18.24;46.99
33163;BME280;29282;45.656;11.302;2023-03-14T01:34:46;97661.97;;;18.24;47.05
33163;BME280;29282;45.656;11.302;2023-03-14T01:37:11;97657.63;;;18.23;46.96
33163;BME280;29282;45.656;11.302;2023-03-14T01:39:37;97663.13;;;18.23;47.14
33163;BME280;29282;45.656;11.302;2023-03-14T01:42:03;97669.75;;;18.22;47.09
33163;BME280;29282;45.656;11.302;2023-03-14T01:47:13;97633.66;;;18.20;47.24
33163;BME280;29282;45.656;11.302;2023-03-14T01:49:39;97655.59;;;18.20;47.03
33163;BME280;29282;45.656;11.302;2023-03-14T01:52:11;97642.69;;;18.21;47.13
33163;BME280;29282;45.656;11.302;2023-03-14T01:54:39;97618.38;;;18.19;47.14
33163;BME280;29282;45.656;11.302;2023-03-14T01:57:16;97612.88;;;18.19;47.07
33163;BME280;29282;45.656;11.302;2023-03-14T01:59:55;97618.38;;;18.19;47.10
33163;BME280;29282;45.656;11.302;2023-03-14T02:02:21;97606.59;;;18.19;46.80
33163;BME280;29282;45.656;11.302;2023-03-14T02:04:49;97593.69;;;18.19;47.19
33163;BME280;29282;45.656;11.302;2023-03-14T02:07:19;97594.84;;;18.18;47.07
33163;BME280;29282;45.656;11.302;2023-03-14T02:09:48;97597.59;;;18.18;47.21
33163;BME280;29282;45.656;11.302;2023-03-14T02:12:16;97588.91;;;18.16;47.23
33163;BME280;29282;45.656;11.302;2023-03-14T02:14:43;97576.34;;;18.15;47.03
33163;BME280;29282;45.656;11.302;2023-03-14T02:17:14;97581.03;;;18.15;47.02
33163;BME280;29282;45.656;11.302;2023-03-14T02:22:18;97573.59;;;18.15;47.35
33163;BME280;29282;45.656;11.302;2023-03-14T02:25:46;97568.13;;;18.15;47.11
33163;BME280;29282;45.656;11.302;2023-03-14T02:27:50;97561.84;;;18.15;47.11
33163;BME280;29282;45.656;11.302;2023-03-14T02:30:21;97558.28;;;18.14;47.08
33163;BME280;29282;45.656;11.302;2023-03-14T02:32:50;97565.72;;;18.14;47.31
33163;BME280;29282;45.656;11.302;2023-03-14T02:35:23;97566.50;;;18.14;47.01
33163;BME280;29282;45.656;11.302;2023-03-14T02:40:18;97566.50;;;18.14;47.19
33163;BME280;29282;45.656;11.302;2023-03-14T02:42:44;97567.66;;;18.13;46.88
33163;BME280;29282;45.656;11.302;2023-03-14T02:47:37;97561.38;;;18.13;47.08
33163;BME280;29282;45.656;11.302;2023-03-14T02:50:10;97552.38;;;18.12;47.13
33163;BME280;29282;45.656;11.302;2023-03-14T02:52:37;97554.31;;;18.12;47.12
33163;BME280;29282;45.656;11.302;2023-03-14T02:55:03;97542.53;;;18.11;47.31
33163;BME280;29282;45.656;11.302;2023-03-14T02:57:29;97546.44;;;18.10;47.08
33163;BME280;29282;45.656;11.302;2023-03-14T02:59:58;97555.44;;;18.11;47.15
33163;BME280;29282;45.656;11.302;2023-03-14T03:02:24;97546.44;;;18.10;47.24
33163;BME280;29282;45.656;11.302;2023-03-14T03:04:49;97536.63;;;18.09;47.21
33163;BME280;29282;45.656;11.302;2023-03-14T03:07:15;97530.34;;;18.08;47.06
33163;BME280;29282;45.656;11.302;2023-03-14T03:09:40;97537.41;;;18.10;47.03
33163;BME280;29282;45.656;11.302;2023-03-14T03:12:06;97562.88;;;18.10;47.17
33163;BME280;29282;45.656;11.302;2023-03-14T03:14:31;97546.44;;;18.10;47.25
33163;BME280;29282;45.656;11.302;2023-03-14T03:16:57;97507.63;;;18.08;47.07
33163;BME280;29282;45.656;11.302;2023-03-14T03:19:22;97531.47;;;18.07;47.30
33163;BME280;29282;45.656;11.302;2023-03-14T03:21:47;97552.63;;;18.07;47.23
33163;BME280;29282;45.656;11.302;2023-03-14T03:24:13;97520.50;;;18.07;47.08
33163;BME280;29282;45.656;11.302;2023-03-14T03:26:39;97504.44;;;18.06;47.11
33163;BME280;29282;45.656;11.302;2023-03-14T03:29:04;97505.22;;;18.06;47.17
33163;BME280;29282;45.656;11.302;2023-03-14T03:31:30;97507.63;;;18.08;47.04
33163;BME280;29282;45.656;11.302;2023-03-14T03:33:56;97494.25;;;18.06;47.08
33163;BME280;29282;45.656;11.302;2023-03-14T03:36:23;97508.75;;;18.07;47.12
33163;BME280;29282;45.656;11.302;2023-03-14T03:38:50;97492.75;;;18.09;47.08
33163;BME280;29282;45.656;11.302;2023-03-14T03:41:15;97486.13;;;18.10;47.04
33163;BME280;29282;45.656;11.302;2023-03-14T03:43:41;97468.09;;;18.09;47.10
33163;BME280;29282;45.656;11.302;2023-03-14T03:46:07;97459.50;;;18.11;46.93
33163;BME280;29282;45.656;11.302;2023-03-14T03:48:33;97468.53;;;18.11;46.88
33163;BME280;29282;45.656;11.302;2023-03-14T03:50:59;97465.91;;;18.15;46.96
33163;BME280;29282;45.656;11.302;2023-03-14T03:53:25;97452.53;;;18.13;46.93
33163;BME280;29282;45.656;11.302;2023-03-14T03:55:50;97459.59;;;18.14;46.92
33163;BME280;29282;45.656;11.302;2023-03-14T03:58:15;97458.47;;;18.15;46.79
33163;BME280;29282;45.656;11.302;2023-03-14T04:00:41;97440.41;;;18.14;46.96
33163;BME280;29282;45.656;11.302;2023-03-14T04:03:06;97447.50;;;18.15;46.88
33163;BME280;29282;45.656;11.302;2023-03-14T04:05:32;97429.09;;;18.16;46.96
33163;BME280;29282;45.656;11.302;2023-03-14T04:07:59;97427.16;;;18.16;46.82
33163;BME280;29282;45.656;11.302;2023-03-14T04:10:25;97429.91;;;18.16;46.69
33163;BME280;29282;45.656;11.302;2023-03-14T04:12:50;97435.38;;;18.16;46.83
33163;BME280;29282;45.656;11.302;2023-03-14T04:15:17;97423.63;;;18.16;46.90
33163;BME280;29282;45.656;11.302;2023-03-14T04:17:42;97407.97;;;18.16;46.79
33163;BME280;29282;45.656;11.302;2023-03-14T04:20:08;97418.56;;;18.18;47.00
33163;BME280;29282;45.656;11.302;2023-03-14T04:22:40;97402.47;;;18.16;46.92
33163;BME280;29282;45.656;11.302;2023-03-14T04:25:06;97424.41;;;18.16;46.87
33163;BME280;29282;45.656;11.302;2023-03-14T04:27:32;97404.75;;;18.14;46.93
33163;BME280;29282;45.656;11.302;2023-03-14T04:29:57;97393.47;;;18.16;46.76
33163;BME280;29282;45.656;11.302;2023-03-14T04:32:23;97393.47;;;18.16;46.82
33163;BME280;29282;45.656;11.302;2023-03-14T04:34:48;97367.53;;;18.13;46.87
33163;BME280;29282;45.656;11.302;2023-03-14T04:37:14;97379.31;;;18.14;46.84
33163;BME280;29282;45.656;11.302;2023-03-14T04:39:39;97382.84;;;18.14;46.80
33163;BME280;29282;45.656;11.302;2023-03-14T04:42:05;97380.09;;;18.14;46.94
33163;BME280;29282;45.656;11.302;2023-03-14T04:44:30;97360.13;;;18.14;46.79
33163;BME280;29282;45.656;11.302;2023-03-14T04:46:56;97356.59;;;18.13;46.92
33163;BME280;29282;45.656;11.302;2023-03-14T04:49:22;97346.06;;;18.15;46.79
33163;BME280;29282;45.656;11.302;2023-03-14T04:51:47;97349.59;;;18.16;46.90
33163;BME280;29282;45.656;11.302;2023-03-14T04:54:13;97361.72;;;18.15;46.83
33163;BME280;29282;45.656;11.302;2023-03-14T04:56:38;97353.50;;;18.15;46.89
33163;BME280;29282;45.656;11.302;2023-03-14T04:59:04;97338.19;;;18.14;46.93
33163;BME280;29282;45.656;11.302;2023-03-14T05:01:30;97332.34;;;18.15;46.97
33163;BME280;29282;45.656;11.302;2023-03-14T05:03:55;97333.94;;;18.16;46.95
33163;BME280;29282;45.656;11.302;2023-03-14T05:06:21;97329.25;;;18.17;47.02
33163;BME280;29282;45.656;11.302;2023-03-14T05:08:46;97327.66;;;18.16;47.12
33163;BME280;29282;45.656;11.302;2023-03-14T05:11:12;97304.94;;;18.15;47.14
33163;BME280;29282;45.656;11.302;2023-03-14T05:13:38;97291.59;;;18.14;47.03
33163;BME280;29282;45.656;11.302;2023-03-14T05:16:09;97280.28;;;18.15;47.01
33163;BME280;29282;45.656;11.302;2023-03-14T05:18:35;97277.88;;;18.14;47.21
33163;BME280;29282;45.656;11.302;2023-03-14T05:21:00;97279.47;;;18.15;47.06
33163;BME280;29282;45.656;11.302;2023-03-14T05:23:26;97276.38;;;18.16;47.17
33163;BME280;29282;45.656;11.302;2023-03-14T05:25:52;97277.53;;;18.15;47.32
33163;BME280;29282;45.656;11.302;2023-03-14T05:28:18;97274.00;;;18.15;47.31
33163;BME280;29282;45.656;11.302;2023-03-14T05:30:43;97273.19;;;18.14;47.09
33163;BME280;29282;45.656;11.302;2023-03-14T05:33:09;97263.38;;;18.13;47.36
33163;BME280;29282;45.656;11.302;2023-03-14T05:35:34;97253.56;;;18.12;47.52
33163;BME280;29282;45.656;11.302;2023-03-14T05:38:00;97225.38;;;18.12;47.35
33163;BME280;29282;45.656;11.302;2023-03-14T05:40:25;97219.88;;;18.12;47.49
33163;BME280;29282;45.656;11.302;2023-03-14T05:42:51;97225.38;;;18.12;47.58
33163;BME280;29282;45.656;11.302;2023-03-14T05:45:17;97219.88;;;18.12;47.46
33163;BME280;29282;45.656;11.302;2023-03-14T05:47:43;97201.50;;;18.12;47.27
33163;BME280;29282;45.656;11.302;2023-03-14T05:50:10;97195.22;;;18.12;47.72
33163;BME280;29282;45.656;11.302;2023-03-14T05:52:36;97192.47;;;18.12;47.50
33163;BME280;29282;45.656;11.302;2023-03-14T05:55:02;97187.78;;;18.12;47.78
33163;BME280;29282;45.656;11.302;2023-03-14T05:57:27;97197.59;;;18.13;47.70
33163;BME280;29282;45.656;11.302;2023-03-14T05:59:53;97212.09;;;18.14;47.65
33163;BME280;29282;45.656;11.302;2023-03-14T06:02:19;97248.50;;;18.14;47.66
33163;BME280;29282;45.656;11.302;2023-03-14T06:04:44;97285.31;;;18.13;47.49
33163;BME280;29282;45.656;11.302;2023-03-14T06:07:10;97285.31;;;18.13;47.42
33163;BME280;29282;45.656;11.302;2023-03-14T06:09:35;97277.88;;;18.14;47.54
33163;BME280;29282;45.656;11.302;2023-03-14T06:12:01;97289.22;;;18.12;47.68
33163;BME280;29282;45.656;11.302;2023-03-14T06:14:26;97297.44;;;18.12;47.74
33163;BME280;29282;45.656;11.302;2023-03-14T06:16:52;97296.28;;;18.13;47.69
33163;BME280;29282;45.656;11.302;2023-03-14T06:19:18;97286.09;;;18.14;47.61
33163;BME280;29282;45.656;11.302;2023-03-14T06:21:44;97290.78;;;18.13;47.55
33163;BME280;29282;45.656;11.302;2023-03-14T06:24:10;97281.78;;;18.13;47.48
33163;BME280;29282;45.656;11.302;2023-03-14T06:26:36;97272.75;;;18.12;47.61
33163;BME280;29282;45.656;11.302;2023-03-14T06:29:01;97264.53;;;18.12;47.73
33163;BME280;29282;45.656;11.302;2023-03-14T06:31:30;97273.91;;;18.11;47.46
33163;BME280;29282;45.656;11.302;2023-03-14T06:33:56;97267.28;;;18.12;47.35
33163;BME280;29282;45.656;11.302;2023-03-14T06:36:21;97275.50;;;18.12;47.50
33163;BME280;29282;45.656;11.302;2023-03-14T06:38:47;97282.56;;;18.13;47.73
33163;BME280;29282;45.656;11.302;2023-03-14T06:41:12;97264.97;;;18.14;47.50
33163;BME280;29282;45.656;11.302;2023-03-14T06:43:38;97255.16;;;18.13;47.64
33163;BME280;29282;45.656;11.302;2023-03-14T06:46:04;97260.63;;;18.13;47.43
33163;BME280;29282;45.656;11.302;2023-03-14T06:48:29;97251.63;;;18.13;47.46
33163;BME280;29282;45.656;11.302;2023-03-14T06:50:55;97260.63;;;18.13;47.65
33163;BME280;29282;45.656;11.302;2023-03-14T06:53:20;97262.22;;;18.14;47.57
33163;BME280;29282;45.656;11.302;2023-03-14T06:55:46;97260.63;;;18.13;47.63
33163;BME280;29282;45.656;11.302;2023-03-14T06:58:12;97246.13;;;18.13;47.69
33163;BME280;29282;45.656;11.302;2023-03-14T07:00:37;97251.63;;;18.13;47.39
33163;BME280;29282;45.656;11.302;2023-03-14T07:03:03;97233.22;;;18.13;47.55
33163;BME280;29282;45.656;11.302;2023-03-14T07:05:28;97241.44;;;18.13;47.49
33163;BME280;29282;45.656;11.302;2023-03-14T07:07:54;97225.00;;;18.13;47.76
33163;BME280;29282;45.656;11.302;2023-03-14T07:10:20;97225.00;;;18.13;47.50
33163;BME280;29282;45.656;11.302;2023-03-14T07:12:45;97228.53;;;18.14;47.65
33163;BME280;29282;45.656;11.302;2023-03-14T07:15:11;97227.03;;;18.16;47.72
33163;BME280;29282;45.656;11.302;2023-03-14T07:17:36;97237.53;;;18.14;47.70
33163;BME280;29282;45.656;11.302;2023-03-14T07:20:02;97243.03;;;18.14;47.85
33163;BME280;29282;45.656;11.302;2023-03-14T07:22:30;97246.59;;;18.15;47.86
33163;BME280;29282;45.656;11.302;2023-03-14T07:24:55;97248.50;;;18.14;47.79
33163;BME280;29282;45.656;11.302;2023-03-14T07:27:21;97236.75;;;18.14;47.99
33163;BME280;29282;45.656;11.302;2023-03-14T07:29:46;97225.00;;;18.13;47.88
33163;BME280;29282;45.656;11.302;2023-03-14T07:32:11;97227.28;;;18.11;48.08
33163;BME280;29282;45.656;11.302;2023-03-14T07:34:43;97218.72;;;18.13;47.87
33163;BME280;29282;45.656;11.302;2023-03-14T07:37:09;97210.50;;;18.13;47.93
33163;BME280;29282;45.656;11.302;2023-03-14T07:39:35;97200.34;;;18.13;48.01
33163;BME280;29282;45.656;11.302;2023-03-14T07:42:00;97213.25;;;18.13;47.95
33163;BME280;29282;45.656;11.302;2023-03-14T07:44:26;97205.38;;;18.11;47.93
33163;BME280;29282;45.656;11.302;2023-03-14T07:46:52;97217.16;;;18.12;48.13
33163;BME280;29282;45.656;11.302;2023-03-14T07:49:18;97205.38;;;18.11;48.01
33163;BME280;29282;45.656;11.302;2023-03-14T07:51:43;97185.38;;;18.11;48.03
33163;BME280;29282;45.656;11.302;2023-03-14T07:54:09;97175.22;;;18.11;48.08
33163;BME280;29282;45.656;11.302;2023-03-14T07:56:35;97199.09;;;18.11;48.25
33163;BME280;29282;45.656;11.302;2023-03-14T07:59:01;97202.22;;;18.09;48.22
33163;BME280;29282;45.656;11.302;2023-03-14T08:01:26;97213.16;;;18.09;47.98
33163;BME280;29282;45.656;11.302;2023-03-14T08:03:52;97217.88;;;18.08;47.77
33163;BME280;29282;45.656;11.302;2023-03-14T08:06:18;97212.38;;;18.08;48.13
33163;BME280;29282;45.656;11.302;2023-03-14T08:08:43;97199.88;;;18.11;47.89
33163;BME280;29282;45.656;11.302;2023-03-14T08:11:09;97219.06;;;18.11;48.13
33163;BME280;29282;45.656;11.302;2023-03-14T08:13:35;97222.19;;;18.10;47.84
33163;BME280;29282;45.656;11.302;2023-03-14T08:16:01;97223.41;;;18.12;47.89
33163;BME280;29282;45.656;11.302;2023-03-14T08:18:26;97209.72;;;18.12;48.26
33163;BME280;29282;45.656;11.302;2023-03-14T08:20:52;97205.03;;;18.13;47.59
33163;BME280;29282;45.656;11.302;2023-03-14T08:23:17;97201.50;;;18.12;47.78
33163;BME280;29282;45.656;11.302;2023-03-14T08:25:43;97192.09;;;18.13;48.01
33163;BME280;29282;45.656;11.302;2023-03-14T08:28:08;97187.41;;;18.14;47.97
33163;BME280;29282;45.656;11.302;2023-03-14T08:30:34;97173.38;;;18.15;47.81
33163;BME280;29282;45.656;11.302;2023-03-14T08:32:59;97162.41;;;18.15;47.70
33163;BME280;29282;45.656;11.302;2023-03-14T08:35:25;97166.72;;;18.16;47.88
33163;BME280;29282;45.656;11.302;2023-03-14T08:37:51;97173.44;;;18.19;47.71
33163;BME280;29282;45.656;11.302;2023-03-14T08:40:17;97166.34;;;18.18;47.77
33163;BME280;29282;45.656;11.302;2023-03-14T08:42:44;97162.47;;;18.19;47.86
33163;BME280;29282;45.656;11.302;2023-03-14T08:45:12;97155.38;;;18.18;47.65
33163;BME280;29282;45.656;11.302;2023-03-14T08:47:38;97162.47;;;18.19;47.60
33163;BME280;29282;45.656;11.302;2023-03-14T08:50:05;97162.47;;;18.19;47.61
33163;BME280;29282;45.656;11.302;2023-03-14T08:52:31;97179.72;;;18.19;47.56
33163;BME280;29282;45.656;11.302;2023-03-14T08:54:57;97183.63;;;18.18;47.70
33163;BME280;29282;45.656;11.302;2023-03-14T08:57:23;97184.03;;;18.20;47.63
33163;BME280;29282;45.656;11.302;2023-03-14T08:59:53;97183.63;;;18.18;47.75
33163;BME280;29282;45.656;11.302;2023-03-14T09:02:21;97174.56;;;18.18;47.80
33163;BME280;29282;45.656;11.302;2023-03-14T09:04:46;97160.06;;;18.17;47.80
33163;BME280;29282;45.656;11.302;2023-03-14T09:07:12;97164.78;;;18.17;47.75
33163;BME280;29282;45.656;11.302;2023-03-14T09:09:38;97158.50;;;18.16;47.58
33163;BME280;29282;45.656;11.302;2023-03-14T09:12:04;97165.94;;;18.16;47.67
33163;BME280;29282;45.656;11.302;2023-03-14T09:14:30;97166.72;;;18.16;47.65
33163;BME280;29282;45.656;11.302;2023-03-14T09:16:56;97169.47;;;18.16;47.65
33163;BME280;29282;45.656;11.302;2023-03-14T09:19:21;97175.31;;;18.15;47.82
33163;BME280;29282;45.656;11.302;2023-03-14T09:21:47;97179.19;;;18.14;47.73
33163;BME280;29282;45.656;11.302;2023-03-14T09:24:12;97175.66;;;18.13;47.86
33163;BME280;29282;45.656;11.302;2023-03-14T09:26:38;97173.38;;;18.15;47.81
33163;BME280;29282;45.656;11.302;2023-03-14T09:29:03;97174.50;;;18.14;47.69
33163;BME280;29282;45.656;11.302;2023-03-14T09:31:29;97164.69;;;18.13;47.71
33163;BME280;29282;45.656;11.302;2023-03-14T09:33:55;97156.03;;;18.11;47.84
33163;BME280;29282;45.656;11.302;2023-03-14T09:36:20;97152.16;;;18.12;47.84
33163;BME280;29282;45.656;11.302;2023-03-14T09:38:46;97152.16;;;18.12;47.84
33163;BME280;29282;45.656;11.302;2023-03-14T09:41:42;97172.13;;;18.13;47.81
33163;BME280;29282;45.656;11.302;2023-03-14T09:44:22;97162.31;;;18.12;47.85
33163;BME280;29282;45.656;11.302;2023-03-14T09:46:52;97161.50;;;18.11;47.76
33163;BME280;29282;45.656;11.302;2023-03-14T09:49:25;97168.59;;;18.12;47.80
33163;BME280;29282;45.656;11.302;2023-03-14T09:51:54;97165.47;;;18.14;47.83
33163;BME280;29282;45.656;11.302;2023-03-14T09:54:36;97170.19;;;18.13;47.82
33163;BME280;29282;45.656;11.302;2023-03-14T09:57:04;97168.22;;;18.14;47.87
33163;BME280;29282;45.656;11.302;2023-03-14T09:59:30;97173.38;;;18.15;47.80
33163;BME280;29282;45.656;11.302;2023-03-14T10:02:24;97154.53;;;18.14;47.61
33163;BME280;29282;45.656;11.302;2023-03-14T10:04:51;97165.13;;;18.15;47.81
33163;BME280;29282;45.656;11.302;2023-03-14T10:07:22;97158.06;;;18.14;47.80
33163;BME280;29282;45.656;11.302;2023-03-14T10:09:50;97154.53;;;18.14;47.61
33163;BME280;29282;45.656;11.302;2023-03-14T10:12:17;97153.38;;;18.15;47.58
33163;BME280;29282;45.656;11.302;2023-03-14T10:14:51;97146.75;;;18.16;47.57
33163;BME280;29282;45.656;11.302;2023-03-14T10:17:19;97148.31;;;18.17;47.46
33163;BME280;29282;45.656;11.302;2023-03-14T10:19:59;97152.63;;;18.18;47.53
33163;BME280;29282;45.656;11.302;2023-03-14T10:22:30;97149.09;;;18.17;47.47
33163;BME280;29282;45.656;11.302;2023-03-14T10:25:00;97163.25;;;18.19;47.67
33163;BME280;29282;45.656;11.302;2023-03-14T10:27:34;97167.16;;;18.18;47.68
33163;BME280;29282;45.656;11.302;2023-03-14T10:30:04;97161.69;;;18.18;47.48
33163;BME280;29282;45.656;11.302;2023-03-14T10:32:39;97157.78;;;18.19;47.49
33163;BME280;29282;45.656;11.302;2023-03-14T10:38:12;97150.34;;;18.20;47.48
33163;BME280;29282;45.656;11.302;2023-03-14T10:40:40;97144.06;;;18.19;47.48
33163;BME280;29282;45.656;11.302;2023-03-14T10:43:11;97131.16;;;18.20;47.53
33163;BME280;29282;45.656;11.302;2023-03-14T10:45:42;97124.88;;;18.19;47.41
33163;BME280;29282;45.656;11.302;2023-03-14T10:48:49;97133.91;;;18.20;47.47
33163;BME280;29282;45.656;11.302;2023-03-14T10:56:18;97138.59;;;18.19;47.52
33163;BME280;29282;45.656;11.302;2023-03-14T10:58:47;97142.91;;;18.20;47.46
33163;BME280;29282;45.656;11.302;2023-03-14T11:06:48;97131.53;;;18.18;47.45
33163;BME280;29282;45.656;11.302;2023-03-14T11:10:01;97118.63;;;18.19;47.47
33163;BME280;29282;45.656;11.302;2023-03-14T11:12:41;97117.81;;;18.18;47.55
33163;BME280;29282;45.656;11.302;2023-03-14T11:15:22;97116.66;;;18.19;47.52
33163;BME280;29282;45.656;11.302;2023-03-14T11:18:21;97113.13;;;18.19;47.43
33163;BME280;29282;45.656;11.302;2023-03-14T11:20:59;97107.28;;;18.20;47.37
33163;BME280;29282;45.656;11.302;2023-03-14T11:23:36;97099.03;;;18.20;47.52
33163;BME280;29282;45.656;11.302;2023-03-14T11:28:50;97086.50;;;18.19;47.55
33163;BME280;29282;45.656;11.302;2023-03-14T11:31:30;97083.38;;;18.21;47.28
33163;BME280;29282;45.656;11.302;2023-03-14T11:36:47;97059.53;;;18.21;47.42
33163;BME280;29282;45.656;11.302;2023-03-14T11:39:18;97059.53;;;18.21;47.42
33163;BME280;29282;45.656;11.302;2023-03-14T11:41:55;97060.31;;;18.22;47.30
33163;BME280;29282;45.656;11.302;2023-03-14T11:44:32;97061.91;;;18.23;47.27
33163;BME280;29282;45.656;11.302;2023-03-14T11:47:03;97063.84;;;18.22;47.27
33163;BME280;29282;45.656;11.302;2023-03-14T11:49:36;97058.38;;;18.22;47.28
33163;BME280;29282;45.656;11.302;2023-03-14T11:54:56;97048.56;;;18.21;47.35
33163;BME280;29282;45.656;11.302;2023-03-14T11:57:23;97052.09;;;18.22;47.46
33163;BME280;29282;45.656;11.302;2023-03-14T12:00:18;97049.34;;;18.22;47.25
33163;BME280;29282;45.656;11.302;2023-03-14T12:11:01;97034.84;;;18.21;47.41
33163;BME280;29282;45.656;11.302;2023-03-14T12:13:29;97022.28;;;18.20;47.33
33163;BME280;29282;45.656;11.302;2023-03-14T12:15:59;97025.03;;;18.20;47.36
33163;BME280;29282;45.656;11.302;2023-03-14T12:18:36;97025.03;;;18.20;47.63
33163;BME280;29282;45.656;11.302;2023-03-14T12:21:10;97018.75;;;18.20;47.40
33163;BME280;29282;45.656;11.302;2023-03-14T12:23:57;97013.28;;;18.20;47.60
33163;BME280;29282;45.656;11.302;2023-03-14T12:26:27;97015.22;;;18.19;47.50
33163;BME280;29282;45.656;11.302;2023-03-14T12:34:03;96997.63;;;18.20;47.55
33163;BME280;29282;45.656;11.302;2023-03-14T12:42:50;96994.47;;;18.18;47.63
33163;BME280;29282;45.656;11.302;2023-03-14T12:48:01;96988.97;;;18.18;47.87
33163;BME280;29282;45.656;11.302;2023-03-14T12:50:34;96984.63;;;18.17;47.72
33163;BME280;29282;45.656;11.302;2023-03-14T13:00:41;96977.13;;;18.14;47.82
33163;BME280;29282;45.656;11.302;2023-03-14T13:03:18;96979.09;;;18.14;47.89
33163;BME280;29282;45.656;11.302;2023-03-14T13:05:59;96974.41;;;18.14;47.87
33163;BME280;29282;45.656;11.302;2023-03-14T13:08:52;96965.75;;;18.12;47.92
33163;BME280;29282;45.656;11.302;2023-03-14T13:11:23;96966.09;;;18.11;47.81
33163;BME280;29282;45.656;11.302;2023-03-14T13:13:56;96960.28;;;18.12;47.82
33163;BME280;29282;45.656;11.302;2023-03-14T13:16:23;96960.63;;;18.11;47.90
33163;BME280;29282;45.656;11.302;2023-03-14T13:18:51;96960.63;;;18.11;47.96
33163;BME280;29282;45.656;11.302;2023-03-14T13:21:25;96957.09;;;18.10;47.86
33163;BME280;29282;45.656;11.302;2023-03-14T13:24:00;96950.84;;;18.10;47.94
33163;BME280;29282;45.656;11.302;2023-03-14T13:26:40;96950.03;;;18.09;47.80
33163;BME280;29282;45.656;11.302;2023-03-14T13:29:19;96950.03;;;18.09;47.94
33163;BME280;29282;45.656;11.302;2023-03-14T13:32:21;96950.03;;;18.09;47.94
33163;BME280;29282;45.656;11.302;2023-03-14T13:34:47;96935.56;;;18.08;47.98
33163;BME280;29282;45.656;11.302;2023-03-14T13:37:22;96941.03;;;18.08;47.91
33163;BME280;29282;45.656;11.302;2023-03-14T13:39:51;96941.03;;;18.08;47.78
33163;BME280;29282;45.656;11.302;2023-03-14T13:42:17;96929.28;;;18.08;47.73
33163;BME280;29282;45.656;11.302;2023-03-14T13:44:44;96935.16;;;18.10;47.95
33163;BME280;29282;45.656;11.302;2023-03-14T13:47:18;96926.94;;;18.10;47.79
33163;BME280;29282;45.656;11.302;2023-03-14T13:49:45;96921.13;;;18.12;47.77
33163;BME280;29282;45.656;11.302;2023-03-14T13:52:31;96918.72;;;18.10;47.84
33163;BME280;29282;45.656;11.302;2023-03-14T13:54:59;96917.22;;;18.13;47.82
33163;BME280;29282;45.656;11.302;2023-03-14T13:57:25;96919.16;;;18.12;47.81
33163;BME280;29282;45.656;11.302;2023-03-14T14:00:07;96916.84;;;18.14;47.83